createdAt,value
2022-09-10T00:01:06.391Z,31.46
2022-09-10T00:03:34.447Z,31.38
2022-09-10T00:06:04.941Z,31.38
2022-09-10T00:08:35.268Z,31.40
2022-09-10T00:11:10.530Z,31.41
2022-09-10T00:13:40.390Z,31.43
2022-09-10T00:16:10.262Z,31.45
2022-09-10T00:18:39.596Z,31.46
2022-09-10T00:21:09.743Z,31.30
2022-09-10T00:23:38.371Z,31.18
2022-09-10T00:26:16.100Z,31.09
2022-09-10T00:28:44.551Z,31.03
2022-09-10T00:31:12.966Z,30.98
2022-09-10T00:33:41.691Z,30.91
2022-09-10T00:36:16.931Z,30.76
2022-09-10T00:38:45.008Z,30.58
2022-09-10T00:41:13.663Z,30.53
2022-09-10T00:43:49.886Z,30.46
2022-09-10T00:46:21.896Z,30.41
2022-09-10T00:48:49.894Z,30.39
2022-09-10T00:51:17.996Z,30.31
2022-09-10T00:53:46.236Z,30.18
2022-09-10T00:56:15.352Z,30.07
2022-09-10T00:58:44.271Z,29.93
2022-09-10T01:01:12.404Z,29.84
2022-09-10T01:03:41.541Z,29.77
2022-09-10T01:06:09.730Z,29.70
2022-09-10T01:08:38.366Z,29.67
2022-09-10T01:11:21.570Z,29.59
2022-09-10T01:13:50.371Z,29.56
2022-09-10T01:16:19.113Z,29.51
2022-09-10T01:19:04.131Z,29.46
2022-09-10T01:21:32.596Z,29.41
2022-09-10T01:24:13.871Z,29.31
2022-09-10T01:27:00.272Z,29.22
2022-09-10T01:29:28.291Z,29.12
2022-09-10T01:31:59.656Z,29.03
2022-09-10T01:34:53.631Z,28.94
2022-09-10T01:37:23.913Z,28.77
2022-09-10T01:39:52.981Z,28.65
2022-09-10T01:42:21.054Z,28.56
2022-09-10T01:44:50.540Z,28.41
2022-09-10T01:47:32.701Z,28.29
2022-09-10T01:50:19.521Z,28.15
2022-09-10T01:53:10.336Z,27.99
2022-09-10T01:55:55.133Z,27.85
2022-09-10T01:58:36.452Z,27.76
2022-09-10T02:01:07.548Z,27.67
2022-09-10T02:03:37.176Z,27.58
2022-09-10T02:06:08.396Z,27.49
2022-09-10T02:08:40.211Z,27.35
2022-09-10T02:11:11.112Z,27.25
2022-09-10T02:13:39.708Z,27.19
2022-09-10T02:16:10.757Z,27.14
2022-09-10T02:18:40.251Z,27.10
2022-09-10T02:21:08.565Z,27.05
2022-09-10T02:23:40.536Z,27.03
2022-09-10T02:26:08.616Z,26.97
2022-09-10T02:28:36.896Z,26.94
2022-09-10T02:31:04.907Z,26.85
2022-09-10T02:33:33.091Z,26.76
2022-09-10T02:36:01.736Z,26.66
2022-09-10T02:38:31.202Z,26.59
2022-09-10T02:41:00.241Z,26.45
2022-09-10T02:43:29.382Z,26.33
2022-09-10T02:45:58.333Z,26.30
2022-09-10T02:48:27.171Z,26.26
2022-09-10T02:50:55.806Z,26.14
2022-09-10T02:53:23.810Z,26.08
2022-09-10T02:55:51.809Z,26.06
2022-09-10T02:58:19.809Z,26.05
2022-09-10T03:00:48.508Z,25.98
2022-09-10T03:03:18.302Z,25.88
2022-09-10T03:05:46.507Z,25.75
2022-09-10T03:08:14.691Z,25.67
2022-09-10T03:10:42.751Z,25.61
2022-09-10T03:13:10.738Z,25.55
2022-09-10T03:15:39.291Z,25.55
2022-09-10T03:18:07.807Z,25.56
2022-09-10T03:20:36.091Z,25.57
2022-09-10T03:23:04.642Z,25.56
2022-09-10T03:25:35.449Z,25.48
2022-09-10T03:28:03.748Z,25.43
2022-09-10T03:30:31.813Z,25.39
2022-09-10T03:32:59.910Z,25.36
2022-09-10T03:35:27.906Z,25.35
2022-09-10T03:37:55.971Z,25.28
2022-09-10T03:40:24.295Z,25.24
2022-09-10T03:42:52.306Z,25.18
2022-09-10T03:45:20.295Z,25.12
2022-09-10T03:47:49.090Z,25.11
2022-09-10T03:50:18.201Z,25.05
2022-09-10T03:52:46.182Z,24.95
2022-09-10T03:55:14.531Z,24.84
2022-09-10T03:57:42.686Z,24.74
2022-09-10T04:00:13.207Z,24.66
2022-09-10T04:02:42.691Z,24.66
2022-09-10T04:05:11.006Z,24.65
2022-09-10T04:07:39.009Z,24.65
2022-09-10T04:10:08.132Z,24.63
2022-09-10T04:12:36.882Z,24.61
2022-09-10T04:15:05.251Z,24.58
2022-09-10T04:17:33.372Z,24.56
2022-09-10T04:20:01.732Z,24.54
2022-09-10T04:22:29.734Z,24.51
2022-09-10T04:25:00.614Z,24.48
2022-09-10T04:27:29.738Z,24.43
2022-09-10T04:29:58.053Z,24.38
2022-09-10T04:32:26.185Z,24.37
2022-09-10T04:34:54.212Z,24.31
2022-09-10T04:37:22.358Z,24.26
2022-09-10T04:39:50.396Z,24.27
2022-09-10T04:42:20.147Z,24.22
2022-09-10T04:44:48.611Z,24.18
2022-09-10T04:47:17.493Z,24.12
2022-09-10T04:49:45.736Z,24.08
2022-09-10T04:52:14.369Z,24.03
2022-09-10T04:54:42.841Z,23.98
2022-09-10T04:57:10.851Z,23.94
2022-09-10T04:59:39.307Z,23.89
2022-09-10T05:02:07.686Z,23.86
2022-09-10T05:04:36.211Z,23.83
2022-09-10T05:07:04.284Z,23.77
2022-09-10T05:09:32.711Z,23.73
2022-09-10T05:12:02.220Z,23.69
2022-09-10T05:14:30.506Z,23.65
2022-09-10T05:16:58.528Z,23.60
2022-09-10T05:19:26.611Z,23.55
2022-09-10T05:21:54.698Z,23.53
2022-09-10T05:24:22.776Z,23.52
2022-09-10T05:26:50.821Z,23.51
2022-09-10T05:29:19.911Z,23.47
2022-09-10T05:31:48.208Z,23.44
2022-09-10T05:34:16.289Z,23.40
2022-09-10T05:36:44.326Z,23.39
2022-09-10T05:39:12.455Z,23.42
2022-09-10T05:41:40.508Z,23.41
2022-09-10T05:44:10.131Z,23.35
2022-09-10T05:46:38.992Z,23.31
2022-09-10T05:49:07.011Z,23.29
2022-09-10T05:51:35.340Z,23.30
2022-09-10T05:54:03.598Z,23.30
2022-09-10T05:56:32.777Z,23.25
2022-09-10T05:59:00.851Z,23.20
2022-09-10T06:01:30.307Z,23.14
2022-09-10T06:03:58.326Z,23.11
2022-09-10T06:06:29.341Z,23.04
2022-09-10T06:08:57.838Z,23.02
2022-09-10T06:11:25.896Z,22.97
2022-09-10T06:13:54.369Z,22.94
2022-09-10T06:16:22.393Z,22.92
2022-09-10T06:18:50.548Z,22.90
2022-09-10T06:21:26.142Z,22.85
2022-09-10T06:23:56.338Z,22.80
2022-09-10T06:26:24.777Z,22.76
2022-09-10T06:28:52.914Z,22.71
2022-09-10T06:31:21.121Z,22.61
2022-09-10T06:33:50.046Z,22.59
2022-09-10T06:36:18.156Z,22.57
2022-09-10T06:38:46.532Z,22.57
2022-09-10T06:41:15.236Z,22.56
2022-09-10T06:43:44.299Z,22.56
2022-09-10T06:46:50.823Z,22.54
2022-09-10T06:49:04.766Z,22.53
2022-09-10T06:51:34.055Z,22.53
2022-09-10T06:54:03.718Z,22.52
2022-09-10T06:56:31.811Z,22.48
2022-09-10T06:59:02.333Z,22.46
2022-09-10T07:01:30.724Z,22.41
2022-09-10T07:04:01.998Z,22.37
2022-09-10T07:06:34.686Z,22.38
2022-09-10T07:09:03.132Z,22.36
2022-09-10T07:11:33.879Z,22.34
2022-09-10T07:14:03.200Z,22.34
2022-09-10T07:16:31.337Z,22.33
2022-09-10T07:19:01.071Z,22.29
2022-09-10T07:21:29.891Z,22.23
2022-09-10T07:23:59.516Z,22.17
2022-09-10T07:26:27.596Z,22.14
2022-09-10T07:28:55.645Z,22.11
2022-09-10T07:31:30.826Z,22.13
2022-09-10T07:33:59.285Z,22.11
2022-09-10T07:36:27.331Z,22.08
2022-09-10T07:38:56.454Z,22.04
2022-09-10T07:41:25.076Z,22.04
2022-09-10T07:43:56.703Z,22.01
2022-09-10T07:46:26.506Z,21.99
2022-09-10T07:48:56.001Z,21.98
2022-09-10T07:51:24.612Z,21.97
2022-09-10T07:53:56.632Z,21.97
2022-09-10T07:56:25.256Z,21.91
2022-09-10T07:58:54.855Z,21.87
2022-09-10T08:01:23.198Z,21.83
2022-09-10T08:03:51.290Z,21.79
2022-09-10T08:06:19.477Z,21.76
2022-09-10T08:08:47.491Z,21.77
2022-09-10T08:11:18.368Z,21.79
2022-09-10T08:13:47.811Z,21.83
2022-09-10T08:16:17.327Z,21.85
2022-09-10T08:18:45.403Z,21.84
2022-09-10T08:21:13.421Z,21.82
2022-09-10T08:23:41.835Z,21.80
2022-09-10T08:26:09.891Z,21.81
2022-09-10T08:28:38.729Z,21.78
2022-09-10T08:31:11.075Z,21.79
2022-09-10T08:33:40.448Z,21.80
2022-09-10T08:36:09.842Z,21.80
2022-09-10T08:38:40.901Z,21.76
2022-09-10T08:41:14.941Z,21.69
2022-09-10T08:44:01.036Z,21.66
2022-09-10T08:46:31.920Z,21.66
2022-09-10T08:49:10.210Z,21.67
2022-09-10T08:52:04.781Z,21.65
2022-09-10T08:54:38.706Z,21.59
2022-09-10T08:57:08.931Z,21.58
2022-09-10T08:59:41.674Z,21.58
2022-09-10T09:02:47.229Z,21.62
2022-09-10T09:05:15.972Z,21.61
2022-09-10T09:07:44.066Z,21.58
2022-09-10T09:10:34.848Z,21.58
2022-09-10T09:13:27.651Z,21.56
2022-09-10T09:16:04.793Z,21.59
2022-09-10T09:18:51.377Z,21.59
2022-09-10T09:21:21.519Z,21.62
2022-09-10T09:24:12.798Z,21.60
2022-09-10T09:26:45.419Z,21.58
2022-09-10T09:29:15.911Z,21.53
2022-09-10T09:31:47.497Z,21.50
2022-09-10T09:34:35.649Z,21.51
2022-09-10T09:37:06.050Z,21.50
2022-09-10T09:39:38.348Z,21.47
2022-09-10T09:42:06.850Z,21.48
2022-09-10T09:44:40.071Z,21.46
2022-09-10T09:47:09.414Z,21.45
2022-09-10T09:49:37.410Z,21.45
2022-09-10T09:52:25.800Z,21.40
2022-09-10T09:55:20.656Z,21.37
2022-09-10T09:57:48.761Z,21.35
2022-09-10T10:00:38.215Z,21.32
2022-09-10T10:03:08.277Z,21.34
2022-09-10T10:05:37.393Z,21.36
2022-09-10T10:08:05.716Z,21.35
2022-09-10T10:10:33.881Z,21.33
2022-09-10T10:13:01.852Z,21.31
2022-09-10T10:15:38.231Z,21.29
2022-09-10T10:18:35.336Z,21.25
2022-09-10T10:21:22.400Z,21.19
2022-09-10T10:23:50.664Z,21.15
2022-09-10T10:26:24.131Z,21.11
2022-09-10T10:28:53.566Z,21.10
2022-09-10T10:31:21.953Z,21.10
2022-09-10T10:34:15.792Z,21.06
2022-09-10T10:37:02.366Z,21.05
2022-09-10T10:39:30.369Z,21.05
2022-09-10T10:41:59.586Z,21.03
2022-09-10T10:44:42.056Z,20.95
2022-09-10T10:47:29.896Z,20.94
2022-09-10T10:49:58.378Z,20.90
2022-09-10T10:52:45.578Z,20.89
2022-09-10T10:55:25.284Z,20.88
2022-09-10T10:58:06.997Z,20.87
2022-09-10T11:00:42.865Z,20.87
2022-09-10T11:03:17.092Z,20.86
2022-09-10T11:05:52.451Z,20.86
2022-09-10T11:08:28.877Z,20.86
2022-09-10T11:11:01.571Z,20.85
2022-09-10T11:13:33.872Z,20.83
2022-09-10T11:16:06.429Z,20.80
2022-09-10T11:18:40.380Z,20.78
2022-09-10T11:21:20.346Z,20.75
2022-09-10T11:23:48.611Z,20.73
2022-09-10T11:26:22.850Z,20.71
2022-09-10T11:28:50.851Z,20.71
2022-09-10T11:31:31.328Z,20.71
2022-09-10T11:34:03.710Z,20.72
2022-09-10T11:36:57.731Z,20.69
2022-09-10T11:39:32.866Z,20.69
2022-09-10T11:42:04.396Z,20.68
2022-09-10T11:44:51.114Z,20.70
2022-09-10T11:47:28.331Z,20.68
2022-09-10T11:50:04.351Z,20.67
2022-09-10T11:52:34.691Z,20.65
2022-09-10T11:55:04.721Z,20.65
2022-09-10T11:57:33.096Z,20.62
2022-09-10T12:00:12.974Z,20.63
2022-09-10T12:02:53.266Z,20.65
2022-09-10T12:05:21.611Z,20.64
2022-09-10T12:07:52.926Z,20.61
2022-09-10T12:10:25.091Z,20.57
2022-09-10T12:12:54.344Z,20.55
2022-09-10T12:15:24.235Z,20.52
2022-09-10T12:17:56.381Z,20.49
2022-09-10T12:20:29.896Z,20.44
2022-09-10T12:22:58.212Z,20.41
2022-09-10T12:25:33.992Z,20.40
2022-09-10T12:28:06.371Z,20.38
2022-09-10T12:30:37.087Z,20.36
2022-09-10T12:33:14.373Z,20.34
2022-09-10T12:35:47.487Z,20.30
2022-09-10T12:38:34.292Z,20.30
2022-09-10T12:41:03.137Z,20.28
2022-09-10T12:43:54.370Z,20.28
2022-09-10T12:46:25.412Z,20.26
2022-09-10T12:48:56.599Z,20.25
2022-09-10T12:51:34.354Z,20.24
2022-09-10T12:54:05.566Z,20.23
2022-09-10T12:56:53.826Z,20.23
2022-09-10T12:59:41.415Z,20.23
2022-09-10T13:02:29.722Z,20.19
2022-09-10T13:05:18.152Z,20.19
2022-09-10T13:07:46.693Z,20.22
2022-09-10T13:10:22.415Z,20.23
2022-09-10T13:12:54.052Z,20.23
2022-09-10T13:15:29.593Z,20.20
2022-09-10T13:17:57.586Z,20.19
2022-09-10T13:20:30.851Z,20.19
2022-09-10T13:23:07.492Z,20.17
2022-09-10T13:25:41.428Z,20.16
2022-09-10T13:28:27.751Z,20.14
2022-09-10T13:31:04.948Z,20.10
2022-09-10T13:33:35.816Z,20.08
2022-09-10T13:36:12.775Z,20.06
2022-09-10T13:39:03.971Z,20.04
2022-09-10T13:41:50.532Z,20.02
2022-09-10T13:44:41.874Z,20.01
2022-09-10T13:47:25.881Z,20.00
2022-09-10T13:49:55.691Z,20.00
2022-09-10T13:52:28.261Z,19.99
2022-09-10T13:54:57.871Z,19.96
2022-09-10T13:57:31.650Z,19.97
2022-09-10T14:00:12.547Z,20.01
2022-09-10T14:02:51.667Z,20.01
2022-09-10T14:05:24.131Z,20.02
2022-09-10T14:07:52.401Z,20.02
2022-09-10T14:10:20.579Z,20.04
2022-09-10T14:12:49.893Z,20.04
2022-09-10T14:15:19.636Z,20.06
2022-09-10T14:17:58.374Z,20.07
2022-09-10T14:20:28.108Z,20.11
2022-09-10T14:23:01.211Z,20.15
2022-09-10T14:25:34.372Z,20.17
2022-09-10T14:28:17.889Z,20.19
2022-09-10T14:30:46.728Z,20.21
2022-09-10T14:33:23.511Z,20.22
2022-09-10T14:35:52.607Z,20.27
2022-09-10T14:38:42.106Z,20.29
2022-09-10T14:41:24.265Z,20.34
2022-09-10T14:44:12.534Z,20.39
2022-09-10T14:47:06.672Z,20.42
2022-09-10T14:49:35.651Z,20.46
2022-09-10T14:52:05.082Z,20.52
2022-09-10T14:54:34.700Z,20.58
2022-09-10T14:57:03.966Z,20.59
2022-09-10T14:59:42.983Z,20.62
2022-09-10T15:02:30.054Z,20.69
2022-09-10T15:04:58.197Z,20.74
2022-09-10T15:07:26.372Z,20.80
2022-09-10T15:09:54.702Z,20.88
2022-09-10T15:12:27.169Z,20.97
2022-09-10T15:14:55.651Z,21.08
2022-09-10T15:17:23.853Z,21.14
2022-09-10T15:19:53.187Z,21.19
2022-09-10T15:22:24.411Z,21.25
2022-09-10T15:25:09.168Z,21.30
2022-09-10T15:27:37.874Z,21.33
2022-09-10T15:30:06.532Z,21.33
2022-09-10T15:32:34.561Z,21.35
2022-09-10T15:35:02.636Z,21.40
2022-09-10T15:37:30.626Z,21.45
2022-09-10T15:39:59.072Z,21.47
2022-09-10T15:42:27.179Z,21.53
2022-09-10T15:44:55.331Z,21.59
2022-09-10T15:47:23.332Z,21.64
2022-09-10T15:49:53.181Z,21.71
2022-09-10T15:52:21.137Z,21.77
2022-09-10T15:54:49.190Z,21.78
2022-09-10T15:57:17.248Z,21.79
2022-09-10T15:59:45.254Z,21.82
2022-09-10T16:02:15.978Z,21.83
2022-09-10T16:04:43.974Z,21.81
2022-09-10T16:07:12.001Z,21.88
2022-09-10T16:09:40.044Z,21.96
2022-09-10T16:12:08.126Z,22.04
2022-09-10T16:14:36.292Z,22.11
2022-09-10T16:17:11.333Z,22.19
2022-09-10T16:19:39.466Z,22.20
2022-09-10T16:22:07.610Z,22.24
2022-09-10T16:24:35.622Z,22.29
2022-09-10T16:27:03.647Z,22.36
2022-09-10T16:29:33.570Z,22.44
2022-09-10T16:32:01.696Z,22.42
2022-09-10T16:34:29.829Z,22.47
2022-09-10T16:36:57.902Z,22.50
2022-09-10T16:39:25.891Z,22.48
2022-09-10T16:41:53.986Z,22.49
2022-09-10T16:44:22.011Z,22.54
2022-09-10T16:46:50.538Z,22.59
2022-09-10T16:49:20.733Z,22.63
2022-09-10T16:51:50.213Z,22.64
2022-09-10T16:54:20.954Z,22.65
2022-09-10T16:56:49.893Z,22.70
2022-09-10T16:59:19.595Z,22.75
2022-09-10T17:01:49.131Z,22.86
2022-09-10T17:04:23.407Z,23.04
2022-09-10T17:06:54.516Z,23.22
2022-09-10T17:09:23.572Z,23.41
2022-09-10T17:11:52.220Z,23.59
2022-09-10T17:14:20.440Z,23.78
2022-09-10T17:16:49.410Z,23.99
2022-09-10T17:19:20.572Z,24.17
2022-09-10T17:21:52.128Z,24.30
2022-09-10T17:24:22.048Z,24.40
2022-09-10T17:26:50.509Z,24.51
2022-09-10T17:29:19.978Z,24.59
2022-09-10T17:31:48.599Z,24.66
2022-09-10T17:34:17.343Z,24.70
2022-09-10T17:36:46.460Z,24.72
2022-09-10T17:39:14.987Z,24.81
2022-09-10T17:41:43.640Z,24.86
2022-09-10T17:44:12.613Z,25.00
2022-09-10T17:46:40.736Z,25.15
2022-09-10T17:49:08.774Z,25.29
2022-09-10T17:51:38.373Z,25.36
2022-09-10T17:54:06.528Z,25.41
2022-09-10T17:56:34.533Z,25.44
2022-09-10T17:59:04.458Z,25.55
2022-09-10T18:01:34.609Z,25.65
2022-09-10T18:04:02.749Z,25.72
2022-09-10T18:06:30.988Z,25.76
2022-09-10T18:09:00.139Z,25.81
2022-09-10T18:11:29.583Z,25.84
2022-09-10T18:13:58.379Z,25.88
2022-09-10T18:16:27.811Z,25.91
2022-09-10T18:18:57.220Z,25.98
2022-09-10T18:21:27.155Z,25.99
2022-09-10T18:23:56.863Z,25.96
2022-09-10T18:26:26.057Z,25.96
2022-09-10T18:28:56.461Z,26.00
2022-09-10T18:31:30.108Z,26.02
2022-09-10T18:33:59.813Z,26.05
2022-09-10T18:36:30.528Z,26.10
2022-09-10T18:39:02.048Z,26.15
2022-09-10T18:41:33.088Z,26.23
2022-09-10T18:44:05.569Z,26.22
2022-09-10T18:46:37.903Z,26.27
2022-09-10T18:49:07.178Z,26.35
2022-09-10T18:51:40.262Z,26.45
2022-09-10T18:54:09.248Z,26.60
2022-09-10T18:56:37.677Z,26.75
2022-09-10T18:59:08.290Z,26.89
2022-09-10T19:01:37.878Z,27.01
2022-09-10T19:04:07.063Z,27.08
2022-09-10T19:06:36.433Z,27.06
2022-09-10T19:09:08.781Z,26.98
2022-09-10T19:11:38.693Z,26.94
2022-09-10T19:14:09.413Z,26.88
2022-09-10T19:16:37.573Z,26.87
2022-09-10T19:19:07.658Z,26.84
2022-09-10T19:21:39.497Z,26.83
2022-09-10T19:24:07.651Z,26.78
2022-09-10T19:26:35.962Z,26.78
2022-09-10T19:29:05.188Z,26.80
2022-09-10T19:31:34.697Z,26.85
2022-09-10T19:34:05.251Z,26.96
2022-09-10T19:36:36.272Z,27.09
2022-09-10T19:39:08.287Z,27.22
2022-09-10T19:41:37.586Z,27.29
2022-09-10T19:44:06.055Z,27.33
2022-09-10T19:46:34.338Z,27.24
2022-09-10T19:49:02.531Z,27.13
2022-09-10T19:51:34.522Z,27.03
2022-09-10T19:54:02.996Z,26.99
2022-09-10T19:56:36.506Z,26.92
2022-09-10T19:59:09.571Z,26.79
2022-09-10T20:01:39.325Z,26.70
2022-09-10T20:04:09.692Z,26.61
2022-09-10T20:06:38.512Z,26.48
2022-09-10T20:09:07.802Z,26.38
2022-09-10T20:11:36.130Z,26.24
2022-09-10T20:14:11.971Z,26.10
2022-09-10T20:16:41.896Z,25.98
2022-09-10T20:19:11.972Z,25.94
2022-09-10T20:21:40.926Z,25.93
2022-09-10T20:24:09.256Z,25.90
2022-09-10T20:26:42.694Z,25.93
2022-09-10T20:29:18.810Z,25.99
2022-09-10T20:31:48.223Z,25.99
2022-09-10T20:34:18.054Z,25.99
2022-09-10T20:36:46.627Z,25.99
2022-09-10T20:39:16.060Z,26.08
2022-09-10T20:41:44.769Z,26.20
2022-09-10T20:44:14.376Z,26.32
2022-09-10T20:46:43.407Z,26.52
2022-09-10T20:49:12.776Z,26.77
2022-09-10T20:51:41.501Z,27.05
2022-09-10T20:54:13.575Z,27.28
2022-09-10T20:56:41.826Z,27.29
2022-09-10T20:59:10.376Z,27.19
2022-09-10T21:01:40.038Z,27.13
2022-09-10T21:04:08.438Z,27.08
2022-09-10T21:06:36.608Z,27.19
2022-09-10T21:09:05.081Z,27.23
2022-09-10T21:11:34.532Z,27.27
2022-09-10T21:14:03.570Z,27.32
2022-09-10T21:16:33.070Z,27.47
2022-09-10T21:19:05.576Z,27.60
2022-09-10T21:21:35.176Z,27.62
2022-09-10T21:24:04.431Z,27.65
2022-09-10T21:26:36.355Z,27.72
2022-09-10T21:29:06.165Z,27.76
2022-09-10T21:31:34.876Z,27.90
2022-09-10T21:34:03.709Z,27.91
2022-09-10T21:36:32.542Z,27.90
2022-09-10T21:39:02.055Z,27.86
2022-09-10T21:41:32.870Z,27.80
2022-09-10T21:44:02.054Z,27.77
2022-09-10T21:46:30.753Z,27.73
2022-09-10T21:48:58.960Z,27.73
2022-09-10T21:51:27.336Z,27.88
2022-09-10T21:53:56.489Z,28.18
2022-09-10T21:56:27.005Z,28.51
2022-09-10T21:58:57.881Z,29.07
2022-09-10T22:01:27.950Z,29.53
2022-09-10T22:04:00.988Z,29.76
2022-09-10T22:06:30.535Z,30.00
2022-09-10T22:08:59.966Z,30.06
2022-09-10T22:11:32.129Z,30.29
2022-09-10T22:14:02.045Z,30.09
2022-09-10T22:16:32.450Z,29.84
2022-09-10T22:19:02.210Z,29.70
2022-09-10T22:21:31.074Z,29.58
2022-09-10T22:23:59.657Z,29.29
2022-09-10T22:26:31.656Z,28.99
2022-09-10T22:29:00.686Z,28.76
2022-09-10T22:31:30.202Z,28.60
2022-09-10T22:33:59.491Z,28.43
2022-09-10T22:36:29.891Z,28.27
2022-09-10T22:39:08.125Z,28.13
2022-09-10T22:41:37.006Z,27.96
2022-09-10T22:44:07.720Z,27.92
2022-09-10T22:46:36.793Z,27.90
2022-09-10T22:49:05.729Z,27.85
2022-09-10T22:51:36.135Z,27.86
2022-09-10T22:54:04.880Z,27.87
2022-09-10T22:56:33.251Z,27.90
2022-09-10T22:59:01.730Z,27.88
2022-09-10T23:01:32.017Z,27.89
2022-09-10T23:04:00.809Z,27.89
2022-09-10T23:06:29.871Z,27.89
2022-09-10T23:08:59.006Z,27.92
2022-09-10T23:11:28.246Z,27.96
2022-09-10T23:14:00.454Z,28.01
2022-09-10T23:16:33.121Z,28.09
2022-09-10T23:19:02.371Z,28.16
2022-09-10T23:21:31.303Z,28.22
2022-09-10T23:24:00.756Z,28.27
2022-09-10T23:26:29.576Z,28.33
2022-09-10T23:28:58.845Z,28.40
2022-09-10T23:31:28.128Z,28.51
2022-09-10T23:34:02.053Z,28.60
2022-09-10T23:36:32.303Z,28.63
2022-09-10T23:39:01.189Z,28.69
2022-09-10T23:41:30.826Z,28.68
2022-09-10T23:43:58.851Z,28.68
2022-09-10T23:46:27.328Z,28.76
2022-09-10T23:48:56.056Z,28.83
2022-09-10T23:51:24.132Z,28.88
2022-09-10T23:53:52.160Z,28.94
2022-09-10T23:56:23.140Z,28.98
2022-09-10T23:58:51.331Z,29.03
